sensor_id;sensor_type;location;lat;lon;timestamp;P1;durP1;ratioP1;P2;durP2;ratioP2
17173;SDS011;8702;48.130;-1.696;2022-07-10T00:00:09;2.00;;;1.57;;
17173;SDS011;8702;48.130;-1.696;2022-07-10T00:02:38;2.00;;;1.40;;
17173;SDS011;8702;48.130;-1.696;2022-07-10T00:05:05;2.37;;;1.37;;
17173;SDS011;8702;48.130;-1.696;2022-07-10T00:07:33;1.90;;;1.60;;
17173;SDS011;8702;48.130;-1.696;2022-07-10T00:10:00;3.57;;;1.60;;
17173;SDS011;8702;48.130;-1.696;2022-07-10T00:12:29;1.40;;;1.30;;
17173;SDS011;8702;48.130;-1.696;2022-07-10T00:14:56;1.57;;;1.20;;
17173;SDS011;8702;48.130;-1.696;2022-07-10T00:17:23;1.73;;;1.50;;
17173;SDS011;8702;48.130;-1.696;2022-07-10T00:19:50;1.40;;;1.30;;
17173;SDS011;8702;48.130;-1.696;2022-07-10T00:22:17;1.83;;;1.57;;
17173;SDS011;8702;48.130;-1.696;2022-07-10T00:24:44;1.40;;;1.30;;
17173;SDS011;8702;48.130;-1.696;2022-07-10T00:27:11;1.50;;;1.30;;
17173;SDS011;8702;48.130;-1.696;2022-07-10T00:29:39;1.47;;;1.37;;
17173;SDS011;8702;48.130;-1.696;2022-07-10T00:32:07;1.77;;;1.20;;
17173;SDS011;8702;48.130;-1.696;2022-07-10T00:34:34;2.27;;;1.30;;
17173;SDS011;8702;48.130;-1.696;2022-07-10T00:37:01;1.40;;;1.30;;
17173;SDS011;8702;48.130;-1.696;2022-07-10T00:39:29;1.57;;;1.30;;
17173;SDS011;8702;48.130;-1.696;2022-07-10T00:42:05;1.90;;;1.60;;
17173;SDS011;8702;48.130;-1.696;2022-07-10T00:44:32;1.70;;;1.60;;
17173;SDS011;8702;48.130;-1.696;2022-07-10T00:47:02;2.20;;;1.53;;
17173;SDS011;8702;48.130;-1.696;2022-07-10T00:49:29;3.53;;;1.50;;
17173;SDS011;8702;48.130;-1.696;2022-07-10T00:51:56;1.77;;;1.30;;
17173;SDS011;8702;48.130;-1.696;2022-07-10T00:54:26;2.70;;;1.60;;
17173;SDS011;8702;48.130;-1.696;2022-07-10T00:56:53;1.73;;;1.60;;
17173;SDS011;8702;48.130;-1.696;2022-07-10T00:59:21;4.90;;;1.60;;
17173;SDS011;8702;48.130;-1.696;2022-07-10T01:01:48;1.77;;;1.60;;
17173;SDS011;8702;48.130;-1.696;2022-07-10T01:04:17;1.83;;;1.63;;
17173;SDS011;8702;48.130;-1.696;2022-07-10T01:06:45;1.73;;;1.50;;
17173;SDS011;8702;48.130;-1.696;2022-07-10T01:09:12;3.60;;;1.77;;
17173;SDS011;8702;48.130;-1.696;2022-07-10T01:11:39;2.53;;;1.80;;
17173;SDS011;8702;48.130;-1.696;2022-07-10T01:14:06;1.90;;;1.63;;
17173;SDS011;8702;48.130;-1.696;2022-07-10T01:16:34;2.27;;;2.03;;
17173;SDS011;8702;48.130;-1.696;2022-07-10T01:19:01;2.43;;;1.70;;
17173;SDS011;8702;48.130;-1.696;2022-07-10T01:21:30;3.33;;;1.80;;
17173;SDS011;8702;48.130;-1.696;2022-07-10T01:23:59;1.70;;;1.60;;
17173;SDS011;8702;48.130;-1.696;2022-07-10T01:26:29;1.60;;;1.50;;
17173;SDS011;8702;48.130;-1.696;2022-07-10T01:28:56;1.90;;;1.70;;
17173;SDS011;8702;48.130;-1.696;2022-07-10T01:31:24;1.80;;;1.70;;
17173;SDS011;8702;48.130;-1.696;2022-07-10T01:33:52;2.10;;;1.90;;
17173;SDS011;8702;48.130;-1.696;2022-07-10T01:36:19;1.93;;;1.40;;
17173;SDS011;8702;48.130;-1.696;2022-07-10T01:38:49;1.70;;;1.60;;
17173;SDS011;8702;48.130;-1.696;2022-07-10T01:41:17;4.63;;;1.90;;
17173;SDS011;8702;48.130;-1.696;2022-07-10T01:43:44;3.27;;;1.80;;
17173;SDS011;8702;48.130;-1.696;2022-07-10T01:46:13;1.90;;;1.80;;
17173;SDS011;8702;48.130;-1.696;2022-07-10T01:48:41;3.27;;;2.07;;
17173;SDS011;8702;48.130;-1.696;2022-07-10T01:51:09;1.93;;;1.73;;
17173;SDS011;8702;48.130;-1.696;2022-07-10T01:53:37;3.60;;;1.90;;
17173;SDS011;8702;48.130;-1.696;2022-07-10T01:56:06;2.63;;;1.63;;
17173;SDS011;8702;48.130;-1.696;2022-07-10T01:58:35;3.07;;;1.73;;
17173;SDS011;8702;48.130;-1.696;2022-07-10T02:01:02;3.10;;;1.90;;
17173;SDS011;8702;48.130;-1.696;2022-07-10T02:03:30;2.13;;;1.87;;
17173;SDS011;8702;48.130;-1.696;2022-07-10T02:06:15;2.20;;;2.00;;
17173;SDS011;8702;48.130;-1.696;2022-07-10T02:08:42;3.03;;;2.13;;
17173;SDS011;8702;48.130;-1.696;2022-07-10T02:11:10;2.10;;;1.83;;
17173;SDS011;8702;48.130;-1.696;2022-07-10T02:13:38;3.13;;;2.17;;
17173;SDS011;8702;48.130;-1.696;2022-07-10T02:16:05;2.10;;;1.90;;
17173;SDS011;8702;48.130;-1.696;2022-07-10T02:18:32;2.17;;;1.97;;
17173;SDS011;8702;48.130;-1.696;2022-07-10T02:20:59;2.13;;;1.87;;
17173;SDS011;8702;48.130;-1.696;2022-07-10T02:23:27;2.53;;;2.10;;
17173;SDS011;8702;48.130;-1.696;2022-07-10T02:25:54;2.87;;;2.00;;
17173;SDS011;8702;48.130;-1.696;2022-07-10T02:28:22;2.27;;;1.70;;
17173;SDS011;8702;48.130;-1.696;2022-07-10T02:30:52;3.00;;;2.20;;
17173;SDS011;8702;48.130;-1.696;2022-07-10T02:33:19;1.90;;;1.80;;
17173;SDS011;8702;48.130;-1.696;2022-07-10T02:35:46;2.47;;;2.13;;
17173;SDS011;8702;48.130;-1.696;2022-07-10T02:38:13;4.20;;;2.03;;
17173;SDS011;8702;48.130;-1.696;2022-07-10T02:40:40;2.27;;;1.90;;
17173;SDS011;8702;48.130;-1.696;2022-07-10T02:43:07;2.30;;;2.10;;
17173;SDS011;8702;48.130;-1.696;2022-07-10T02:45:36;2.47;;;2.03;;
17173;SDS011;8702;48.130;-1.696;2022-07-10T02:48:04;2.10;;;1.90;;
17173;SDS011;8702;48.130;-1.696;2022-07-10T02:50:31;4.23;;;2.07;;
17173;SDS011;8702;48.130;-1.696;2022-07-10T02:52:58;2.60;;;2.30;;
17173;SDS011;8702;48.130;-1.696;2022-07-10T02:55:25;2.40;;;2.20;;
17173;SDS011;8702;48.130;-1.696;2022-07-10T02:57:52;4.07;;;2.30;;
17173;SDS011;8702;48.130;-1.696;2022-07-10T03:00:19;2.17;;;1.97;;
17173;SDS011;8702;48.130;-1.696;2022-07-10T03:02:47;2.23;;;2.03;;
17173;SDS011;8702;48.130;-1.696;2022-07-10T03:05:14;2.30;;;1.90;;
17173;SDS011;8702;48.130;-1.696;2022-07-10T03:07:41;2.00;;;1.90;;
17173;SDS011;8702;48.130;-1.696;2022-07-10T03:10:08;3.00;;;1.80;;
17173;SDS011;8702;48.130;-1.696;2022-07-10T03:12:35;2.20;;;1.90;;
17173;SDS011;8702;48.130;-1.696;2022-07-10T03:15:03;2.27;;;2.07;;
17173;SDS011;8702;48.130;-1.696;2022-07-10T03:17:31;4.13;;;1.83;;
17173;SDS011;8702;48.130;-1.696;2022-07-10T03:19:59;2.20;;;2.00;;
17173;SDS011;8702;48.130;-1.696;2022-07-10T03:22:26;4.30;;;1.90;;
17173;SDS011;8702;48.130;-1.696;2022-07-10T03:24:54;2.53;;;1.90;;
17173;SDS011;8702;48.130;-1.696;2022-07-10T03:27:21;2.07;;;1.87;;
17173;SDS011;8702;48.130;-1.696;2022-07-10T03:29:48;1.97;;;1.70;;
17173;SDS011;8702;48.130;-1.696;2022-07-10T03:32:15;3.80;;;1.60;;
17173;SDS011;8702;48.130;-1.696;2022-07-10T03:34:42;2.20;;;2.00;;
17173;SDS011;8702;48.130;-1.696;2022-07-10T03:37:10;2.47;;;1.77;;
17173;SDS011;8702;48.130;-1.696;2022-07-10T03:39:37;2.70;;;2.00;;
17173;SDS011;8702;48.130;-1.696;2022-07-10T03:42:04;2.10;;;1.90;;
17173;SDS011;8702;48.130;-1.696;2022-07-10T03:44:32;2.30;;;1.97;;
17173;SDS011;8702;48.130;-1.696;2022-07-10T03:46:59;2.67;;;1.73;;
17173;SDS011;8702;48.130;-1.696;2022-07-10T03:49:26;2.40;;;1.90;;
17173;SDS011;8702;48.130;-1.696;2022-07-10T03:51:53;4.07;;;1.97;;
17173;SDS011;8702;48.130;-1.696;2022-07-10T03:54:21;2.43;;;2.10;;
17173;SDS011;8702;48.130;-1.696;2022-07-10T03:56:48;3.13;;;1.83;;
17173;SDS011;8702;48.130;-1.696;2022-07-10T03:59:33;2.60;;;1.90;;
17173;SDS011;8702;48.130;-1.696;2022-07-10T04:02:00;1.90;;;1.80;;
17173;SDS011;8702;48.130;-1.696;2022-07-10T04:04:27;2.10;;;2.00;;
17173;SDS011;8702;48.130;-1.696;2022-07-10T04:06:54;2.40;;;1.97;;
17173;SDS011;8702;48.130;-1.696;2022-07-10T04:09:22;2.67;;;2.10;;
17173;SDS011;8702;48.130;-1.696;2022-07-10T04:11:49;2.00;;;1.80;;
17173;SDS011;8702;48.130;-1.696;2022-07-10T04:14:16;2.30;;;2.07;;
17173;SDS011;8702;48.130;-1.696;2022-07-10T04:16:44;3.17;;;2.10;;
17173;SDS011;8702;48.130;-1.696;2022-07-10T04:19:11;2.00;;;1.80;;
17173;SDS011;8702;48.130;-1.696;2022-07-10T04:21:37;2.23;;;1.77;;
17173;SDS011;8702;48.130;-1.696;2022-07-10T04:24:05;3.00;;;2.00;;
17173;SDS011;8702;48.130;-1.696;2022-07-10T04:26:33;2.10;;;1.90;;
17173;SDS011;8702;48.130;-1.696;2022-07-10T04:29:00;6.03;;;1.90;;
17173;SDS011;8702;48.130;-1.696;2022-07-10T04:31:27;2.77;;;2.10;;
17173;SDS011;8702;48.130;-1.696;2022-07-10T04:33:54;3.20;;;1.80;;
17173;SDS011;8702;48.130;-1.696;2022-07-10T04:36:22;2.27;;;1.90;;
17173;SDS011;8702;48.130;-1.696;2022-07-10T04:38:49;1.97;;;1.83;;
17173;SDS011;8702;48.130;-1.696;2022-07-10T04:41:16;2.23;;;1.60;;
17173;SDS011;8702;48.130;-1.696;2022-07-10T04:43:45;2.00;;;1.90;;
17173;SDS011;8702;48.130;-1.696;2022-07-10T04:46:12;3.27;;;2.00;;
17173;SDS011;8702;48.130;-1.696;2022-07-10T04:48:39;2.00;;;1.80;;
17173;SDS011;8702;48.130;-1.696;2022-07-10T04:51:06;4.30;;;1.87;;
17173;SDS011;8702;48.130;-1.696;2022-07-10T04:53:33;2.67;;;1.80;;
17173;SDS011;8702;48.130;-1.696;2022-07-10T04:56:00;1.70;;;1.60;;
17173;SDS011;8702;48.130;-1.696;2022-07-10T04:58:28;2.10;;;1.90;;
17173;SDS011;8702;48.130;-1.696;2022-07-10T05:00:56;2.10;;;1.70;;
17173;SDS011;8702;48.130;-1.696;2022-07-10T05:03:23;2.50;;;1.83;;
17173;SDS011;8702;48.130;-1.696;2022-07-10T05:05:50;2.50;;;1.83;;
17173;SDS011;8702;48.130;-1.696;2022-07-10T05:08:17;1.60;;;1.50;;
17173;SDS011;8702;48.130;-1.696;2022-07-10T05:10:44;1.60;;;1.50;;
17173;SDS011;8702;48.130;-1.696;2022-07-10T05:13:11;2.63;;;1.70;;
17173;SDS011;8702;48.130;-1.696;2022-07-10T05:15:38;1.97;;;1.70;;
17173;SDS011;8702;48.130;-1.696;2022-07-10T05:18:07;2.50;;;1.50;;
17173;SDS011;8702;48.130;-1.696;2022-07-10T05:20:34;2.67;;;1.47;;
17173;SDS011;8702;48.130;-1.696;2022-07-10T05:23:03;3.03;;;1.70;;
17173;SDS011;8702;48.130;-1.696;2022-07-10T05:25:30;3.47;;;1.70;;
17173;SDS011;8702;48.130;-1.696;2022-07-10T05:27:57;4.87;;;1.70;;
17173;SDS011;8702;48.130;-1.696;2022-07-10T05:30:24;2.03;;;1.50;;
17173;SDS011;8702;48.130;-1.696;2022-07-10T05:32:51;1.60;;;1.50;;
17173;SDS011;8702;48.130;-1.696;2022-07-10T05:35:20;3.83;;;1.47;;
17173;SDS011;8702;48.130;-1.696;2022-07-10T05:37:47;1.50;;;1.40;;
17173;SDS011;8702;48.130;-1.696;2022-07-10T05:40:14;1.70;;;1.60;;
17173;SDS011;8702;48.130;-1.696;2022-07-10T05:42:41;2.77;;;1.60;;
17173;SDS011;8702;48.130;-1.696;2022-07-10T05:45:09;2.17;;;1.63;;
17173;SDS011;8702;48.130;-1.696;2022-07-10T05:47:36;1.93;;;1.70;;
17173;SDS011;8702;48.130;-1.696;2022-07-10T05:50:04;1.87;;;1.40;;
17173;SDS011;8702;48.130;-1.696;2022-07-10T05:52:33;2.10;;;1.90;;
17173;SDS011;8702;48.130;-1.696;2022-07-10T05:55:00;2.63;;;1.70;;
17173;SDS011;8702;48.130;-1.696;2022-07-10T05:57:29;5.40;;;1.80;;
17173;SDS011;8702;48.130;-1.696;2022-07-10T05:59:56;2.37;;;1.70;;
17173;SDS011;8702;48.130;-1.696;2022-07-10T06:02:24;2.10;;;1.53;;
17173;SDS011;8702;48.130;-1.696;2022-07-10T06:04:52;1.53;;;1.40;;
17173;SDS011;8702;48.130;-1.696;2022-07-10T06:07:19;1.53;;;1.43;;
17173;SDS011;8702;48.130;-1.696;2022-07-10T06:09:47;1.70;;;1.30;;
17173;SDS011;8702;48.130;-1.696;2022-07-10T06:12:14;1.63;;;1.40;;
17173;SDS011;8702;48.130;-1.696;2022-07-10T06:14:41;3.50;;;1.50;;
17173;SDS011;8702;48.130;-1.696;2022-07-10T06:17:08;3.37;;;1.63;;
17173;SDS011;8702;48.130;-1.696;2022-07-10T06:19:35;2.40;;;1.67;;
17173;SDS011;8702;48.130;-1.696;2022-07-10T06:22:03;5.23;;;1.90;;
17173;SDS011;8702;48.130;-1.696;2022-07-10T06:24:49;1.70;;;1.50;;
17173;SDS011;8702;48.130;-1.696;2022-07-10T06:27:16;2.03;;;1.40;;
17173;SDS011;8702;48.130;-1.696;2022-07-10T06:29:43;7.03;;;1.50;;
17173;SDS011;8702;48.130;-1.696;2022-07-10T06:32:10;1.73;;;1.30;;
17173;SDS011;8702;48.130;-1.696;2022-07-10T06:34:37;2.80;;;1.50;;
17173;SDS011;8702;48.130;-1.696;2022-07-10T06:37:04;1.43;;;1.13;;
17173;SDS011;8702;48.130;-1.696;2022-07-10T06:39:32;6.77;;;1.50;;
17173;SDS011;8702;48.130;-1.696;2022-07-10T06:42:02;2.17;;;1.37;;
17173;SDS011;8702;48.130;-1.696;2022-07-10T06:44:29;1.50;;;1.30;;
17173;SDS011;8702;48.130;-1.696;2022-07-10T06:46:56;1.90;;;1.30;;
17173;SDS011;8702;48.130;-1.696;2022-07-10T06:49:42;2.10;;;1.30;;
17173;SDS011;8702;48.130;-1.696;2022-07-10T06:52:09;1.83;;;1.30;;
17173;SDS011;8702;48.130;-1.696;2022-07-10T06:54:37;3.73;;;1.60;;
17173;SDS011;8702;48.130;-1.696;2022-07-10T06:57:06;2.53;;;1.60;;
17173;SDS011;8702;48.130;-1.696;2022-07-10T06:59:33;2.27;;;1.23;;
17173;SDS011;8702;48.130;-1.696;2022-07-10T07:02:00;1.53;;;1.10;;
17173;SDS011;8702;48.130;-1.696;2022-07-10T07:04:27;1.30;;;1.20;;
17173;SDS011;8702;48.130;-1.696;2022-07-10T07:06:54;4.37;;;1.23;;
17173;SDS011;8702;48.130;-1.696;2022-07-10T07:09:21;3.40;;;1.30;;
17173;SDS011;8702;48.130;-1.696;2022-07-10T07:11:49;1.70;;;1.00;;
17173;SDS011;8702;48.130;-1.696;2022-07-10T07:14:17;1.97;;;1.10;;
17173;SDS011;8702;48.130;-1.696;2022-07-10T07:16:44;1.63;;;1.13;;
17173;SDS011;8702;48.130;-1.696;2022-07-10T07:19:22;2.23;;;1.30;;
17173;SDS011;8702;48.130;-1.696;2022-07-10T07:21:56;1.60;;;1.13;;
17173;SDS011;8702;48.130;-1.696;2022-07-10T07:24:40;4.90;;;1.43;;
17173;SDS011;8702;48.130;-1.696;2022-07-10T07:27:08;2.10;;;1.10;;
17173;SDS011;8702;48.130;-1.696;2022-07-10T07:29:36;1.67;;;1.13;;
17173;SDS011;8702;48.130;-1.696;2022-07-10T07:32:04;2.10;;;1.30;;
17173;SDS011;8702;48.130;-1.696;2022-07-10T07:34:31;2.77;;;1.30;;
17173;SDS011;8702;48.130;-1.696;2022-07-10T07:36:58;1.37;;;1.20;;
17173;SDS011;8702;48.130;-1.696;2022-07-10T07:39:25;2.23;;;1.20;;
17173;SDS011;8702;48.130;-1.696;2022-07-10T07:41:52;3.13;;;1.00;;
17173;SDS011;8702;48.130;-1.696;2022-07-10T07:44:19;2.03;;;1.10;;
17173;SDS011;8702;48.130;-1.696;2022-07-10T07:46:47;4.10;;;1.07;;
17173;SDS011;8702;48.130;-1.696;2022-07-10T07:49:14;1.73;;;1.00;;
17173;SDS011;8702;48.130;-1.696;2022-07-10T07:51:41;1.67;;;1.23;;
17173;SDS011;8702;48.130;-1.696;2022-07-10T07:54:12;1.63;;;0.80;;
17173;SDS011;8702;48.130;-1.696;2022-07-10T07:56:40;1.80;;;1.10;;
17173;SDS011;8702;48.130;-1.696;2022-07-10T07:59:07;2.40;;;0.93;;
17173;SDS011;8702;48.130;-1.696;2022-07-10T08:01:35;2.67;;;1.10;;
17173;SDS011;8702;48.130;-1.696;2022-07-10T08:04:04;2.07;;;1.10;;
17173;SDS011;8702;48.130;-1.696;2022-07-10T08:06:31;3.10;;;1.10;;
17173;SDS011;8702;48.130;-1.696;2022-07-10T08:08:58;3.93;;;1.20;;
17173;SDS011;8702;48.130;-1.696;2022-07-10T08:11:25;4.03;;;1.33;;
17173;SDS011;8702;48.130;-1.696;2022-07-10T08:13:52;1.27;;;0.80;;
17173;SDS011;8702;48.130;-1.696;2022-07-10T08:16:19;4.23;;;1.50;;
17173;SDS011;8702;48.130;-1.696;2022-07-10T08:18:46;1.70;;;1.27;;
17173;SDS011;8702;48.130;-1.696;2022-07-10T08:21:14;1.37;;;1.23;;
17173;SDS011;8702;48.130;-1.696;2022-07-10T08:23:41;1.93;;;1.10;;
17173;SDS011;8702;48.130;-1.696;2022-07-10T08:26:08;1.43;;;0.93;;
17173;SDS011;8702;48.130;-1.696;2022-07-10T08:28:35;3.63;;;1.23;;
17173;SDS011;8702;48.130;-1.696;2022-07-10T08:31:02;6.60;;;1.00;;
17173;SDS011;8702;48.130;-1.696;2022-07-10T08:33:29;3.37;;;1.30;;
17173;SDS011;8702;48.130;-1.696;2022-07-10T08:35:56;0.90;;;0.83;;
17173;SDS011;8702;48.130;-1.696;2022-07-10T08:38:26;1.37;;;1.00;;
17173;SDS011;8702;48.130;-1.696;2022-07-10T08:40:54;2.40;;;1.10;;
17173;SDS011;8702;48.130;-1.696;2022-07-10T08:43:22;2.93;;;1.13;;
17173;SDS011;8702;48.130;-1.696;2022-07-10T08:45:50;0.87;;;0.77;;
17173;SDS011;8702;48.130;-1.696;2022-07-10T08:48:19;1.77;;;0.90;;
17173;SDS011;8702;48.130;-1.696;2022-07-10T08:50:51;2.60;;;1.20;;
17173;SDS011;8702;48.130;-1.696;2022-07-10T08:53:22;3.23;;;1.10;;
17173;SDS011;8702;48.130;-1.696;2022-07-10T08:55:56;2.60;;;1.17;;
17173;SDS011;8702;48.130;-1.696;2022-07-10T08:58:23;1.17;;;0.80;;
17173;SDS011;8702;48.130;-1.696;2022-07-10T09:00:51;2.00;;;0.90;;
17173;SDS011;8702;48.130;-1.696;2022-07-10T09:03:19;2.97;;;1.07;;
17173;SDS011;8702;48.130;-1.696;2022-07-10T09:05:46;2.80;;;0.97;;
17173;SDS011;8702;48.130;-1.696;2022-07-10T09:13:49;3.60;;;1.40;;
17173;SDS011;8702;48.130;-1.696;2022-07-10T09:16:20;2.60;;;0.90;;
17173;SDS011;8702;48.130;-1.696;2022-07-10T09:18:50;1.83;;;1.00;;
17173;SDS011;8702;48.130;-1.696;2022-07-10T09:21:17;2.17;;;1.10;;
17173;SDS011;8702;48.130;-1.696;2022-07-10T09:23:44;2.93;;;0.93;;
17173;SDS011;8702;48.130;-1.696;2022-07-10T09:26:11;1.33;;;0.97;;
17173;SDS011;8702;48.130;-1.696;2022-07-10T09:28:40;3.10;;;1.00;;
17173;SDS011;8702;48.130;-1.696;2022-07-10T09:31:07;2.30;;;0.97;;
17173;SDS011;8702;48.130;-1.696;2022-07-10T09:33:34;1.47;;;0.90;;
17173;SDS011;8702;48.130;-1.696;2022-07-10T09:36:05;1.03;;;0.70;;
17173;SDS011;8702;48.130;-1.696;2022-07-10T09:38:53;2.67;;;1.07;;
17173;SDS011;8702;48.130;-1.696;2022-07-10T09:41:23;1.40;;;1.07;;
17173;SDS011;8702;48.130;-1.696;2022-07-10T09:43:53;1.37;;;1.13;;
17173;SDS011;8702;48.130;-1.696;2022-07-10T09:46:22;1.10;;;1.00;;
17173;SDS011;8702;48.130;-1.696;2022-07-10T09:49:03;1.27;;;1.00;;
17173;SDS011;8702;48.130;-1.696;2022-07-10T09:51:35;1.97;;;1.03;;
17173;SDS011;8702;48.130;-1.696;2022-07-10T09:54:03;1.03;;;0.83;;
17173;SDS011;8702;48.130;-1.696;2022-07-10T09:56:41;1.47;;;1.10;;
17173;SDS011;8702;48.130;-1.696;2022-07-10T09:59:11;2.30;;;0.90;;
17173;SDS011;8702;48.130;-1.696;2022-07-10T10:01:42;1.53;;;1.03;;
17173;SDS011;8702;48.130;-1.696;2022-07-10T10:04:11;1.83;;;1.20;;
17173;SDS011;8702;48.130;-1.696;2022-07-10T10:06:41;2.77;;;0.90;;
17173;SDS011;8702;48.130;-1.696;2022-07-10T10:09:09;2.53;;;0.93;;
17173;SDS011;8702;48.130;-1.696;2022-07-10T10:11:43;1.67;;;1.00;;
17173;SDS011;8702;48.130;-1.696;2022-07-10T10:14:12;1.10;;;0.90;;
17173;SDS011;8702;48.130;-1.696;2022-07-10T10:16:42;1.93;;;1.13;;
17173;SDS011;8702;48.130;-1.696;2022-07-10T10:19:11;2.37;;;1.10;;
17173;SDS011;8702;48.130;-1.696;2022-07-10T10:21:57;2.73;;;1.20;;
17173;SDS011;8702;48.130;-1.696;2022-07-10T10:24:25;1.23;;;1.10;;
17173;SDS011;8702;48.130;-1.696;2022-07-10T10:26:53;3.53;;;1.17;;
17173;SDS011;8702;48.130;-1.696;2022-07-10T10:29:22;4.50;;;1.10;;
17173;SDS011;8702;48.130;-1.696;2022-07-10T10:31:49;1.10;;;1.00;;
17173;SDS011;8702;48.130;-1.696;2022-07-10T10:37:07;1.03;;;0.90;;
17173;SDS011;8702;48.130;-1.696;2022-07-10T10:40:02;1.10;;;1.00;;
17173;SDS011;8702;48.130;-1.696;2022-07-10T10:42:36;1.83;;;1.00;;
17173;SDS011;8702;48.130;-1.696;2022-07-10T10:45:25;3.90;;;1.13;;
17173;SDS011;8702;48.130;-1.696;2022-07-10T10:47:58;1.57;;;1.30;;
17173;SDS011;8702;48.130;-1.696;2022-07-10T10:50:38;1.63;;;1.17;;
17173;SDS011;8702;48.130;-1.696;2022-07-10T10:53:14;1.27;;;0.93;;
17173;SDS011;8702;48.130;-1.696;2022-07-10T10:58:42;1.80;;;1.27;;
17173;SDS011;8702;48.130;-1.696;2022-07-10T11:01:24;1.50;;;1.20;;
17173;SDS011;8702;48.130;-1.696;2022-07-10T11:04:12;2.07;;;1.30;;
17173;SDS011;8702;48.130;-1.696;2022-07-10T11:06:40;1.00;;;1.00;;
17173;SDS011;8702;48.130;-1.696;2022-07-10T11:09:21;2.43;;;1.10;;
17173;SDS011;8702;48.130;-1.696;2022-07-10T11:11:57;4.30;;;1.40;;
17173;SDS011;8702;48.130;-1.696;2022-07-10T11:14:29;1.30;;;1.00;;
17173;SDS011;8702;48.130;-1.696;2022-07-10T11:16:58;1.63;;;1.10;;
17173;SDS011;8702;48.130;-1.696;2022-07-10T11:19:26;2.80;;;1.10;;
17173;SDS011;8702;48.130;-1.696;2022-07-10T11:21:56;1.47;;;1.10;;
17173;SDS011;8702;48.130;-1.696;2022-07-10T11:24:38;1.27;;;1.17;;
17173;SDS011;8702;48.130;-1.696;2022-07-10T11:27:15;1.40;;;1.00;;
17173;SDS011;8702;48.130;-1.696;2022-07-10T11:29:56;1.53;;;1.20;;
17173;SDS011;8702;48.130;-1.696;2022-07-10T11:32:25;3.43;;;1.00;;
17173;SDS011;8702;48.130;-1.696;2022-07-10T11:34:52;1.40;;;1.27;;
17173;SDS011;8702;48.130;-1.696;2022-07-10T11:37:19;4.00;;;1.13;;
17173;SDS011;8702;48.130;-1.696;2022-07-10T11:39:47;0.90;;;0.90;;
17173;SDS011;8702;48.130;-1.696;2022-07-10T11:42:14;3.40;;;1.13;;
17173;SDS011;8702;48.130;-1.696;2022-07-10T11:44:41;1.43;;;1.23;;
17173;SDS011;8702;48.130;-1.696;2022-07-10T11:47:08;1.20;;;1.10;;
17173;SDS011;8702;48.130;-1.696;2022-07-10T11:49:43;3.93;;;1.50;;
17173;SDS011;8702;48.130;-1.696;2022-07-10T11:52:11;1.30;;;1.10;;
17173;SDS011;8702;48.130;-1.696;2022-07-10T11:54:38;1.70;;;1.20;;
17173;SDS011;8702;48.130;-1.696;2022-07-10T11:57:07;1.50;;;1.07;;
17173;SDS011;8702;48.130;-1.696;2022-07-10T11:59:36;1.30;;;1.20;;
17173;SDS011;8702;48.130;-1.696;2022-07-10T12:02:03;1.33;;;1.20;;
17173;SDS011;8702;48.130;-1.696;2022-07-10T12:04:32;1.67;;;1.20;;
17173;SDS011;8702;48.130;-1.696;2022-07-10T12:07:00;1.03;;;1.00;;
17173;SDS011;8702;48.130;-1.696;2022-07-10T12:09:27;1.93;;;1.00;;
17173;SDS011;8702;48.130;-1.696;2022-07-10T12:11:58;4.77;;;1.27;;
17173;SDS011;8702;48.130;-1.696;2022-07-10T12:14:26;3.10;;;1.20;;
17173;SDS011;8702;48.130;-1.696;2022-07-10T12:16:53;2.03;;;1.30;;
17173;SDS011;8702;48.130;-1.696;2022-07-10T12:19:22;2.27;;;1.13;;
17173;SDS011;8702;48.130;-1.696;2022-07-10T12:21:50;1.83;;;1.07;;
17173;SDS011;8702;48.130;-1.696;2022-07-10T12:24:19;1.10;;;1.00;;
17173;SDS011;8702;48.130;-1.696;2022-07-10T12:26:48;1.27;;;1.07;;
17173;SDS011;8702;48.130;-1.696;2022-07-10T12:29:19;3.07;;;1.10;;
17173;SDS011;8702;48.130;-1.696;2022-07-10T12:31:49;2.67;;;1.30;;
17173;SDS011;8702;48.130;-1.696;2022-07-10T12:34:20;1.23;;;1.07;;
17173;SDS011;8702;48.130;-1.696;2022-07-10T12:36:58;2.80;;;0.90;;
17173;SDS011;8702;48.130;-1.696;2022-07-10T12:39:35;1.07;;;1.07;;
17173;SDS011;8702;48.130;-1.696;2022-07-10T12:42:04;1.80;;;0.90;;
17173;SDS011;8702;48.130;-1.696;2022-07-10T12:44:32;1.30;;;1.20;;
17173;SDS011;8702;48.130;-1.696;2022-07-10T12:47:05;1.77;;;1.10;;
17173;SDS011;8702;48.130;-1.696;2022-07-10T12:49:48;1.27;;;1.00;;
17173;SDS011;8702;48.130;-1.696;2022-07-10T12:52:19;1.20;;;1.00;;
17173;SDS011;8702;48.130;-1.696;2022-07-10T12:54:48;1.30;;;1.20;;
17173;SDS011;8702;48.130;-1.696;2022-07-10T12:57:33;2.43;;;1.03;;
17173;SDS011;8702;48.130;-1.696;2022-07-10T13:00:10;1.07;;;0.97;;
17173;SDS011;8702;48.130;-1.696;2022-07-10T13:02:39;1.20;;;1.10;;
17173;SDS011;8702;48.130;-1.696;2022-07-10T13:05:09;2.40;;;1.30;;
17173;SDS011;8702;48.130;-1.696;2022-07-10T13:07:36;2.20;;;1.07;;
17173;SDS011;8702;48.130;-1.696;2022-07-10T13:10:06;2.80;;;1.30;;
17173;SDS011;8702;48.130;-1.696;2022-07-10T13:12:34;1.20;;;0.90;;
17173;SDS011;8702;48.130;-1.696;2022-07-10T13:15:02;1.83;;;1.07;;
17173;SDS011;8702;48.130;-1.696;2022-07-10T13:17:30;1.57;;;1.13;;
17173;SDS011;8702;48.130;-1.696;2022-07-10T13:19:57;3.00;;;1.30;;
17173;SDS011;8702;48.130;-1.696;2022-07-10T13:22:24;2.13;;;1.23;;
17173;SDS011;8702;48.130;-1.696;2022-07-10T13:24:51;1.52;;;1.27;;
17173;SDS011;8702;48.130;-1.696;2022-07-10T13:27:19;0.93;;;0.90;;
17173;SDS011;8702;48.130;-1.696;2022-07-10T13:29:48;2.70;;;1.03;;
17173;SDS011;8702;48.130;-1.696;2022-07-10T13:32:15;0.93;;;0.93;;
17173;SDS011;8702;48.130;-1.696;2022-07-10T13:34:42;0.90;;;0.90;;
17173;SDS011;8702;48.130;-1.696;2022-07-10T13:37:09;1.10;;;0.93;;
17173;SDS011;8702;48.130;-1.696;2022-07-10T13:39:38;1.83;;;1.50;;
17173;SDS011;8702;48.130;-1.696;2022-07-10T13:42:05;1.70;;;1.13;;
17173;SDS011;8702;48.130;-1.696;2022-07-10T13:44:33;0.80;;;0.80;;
17173;SDS011;8702;48.130;-1.696;2022-07-10T13:47:00;1.60;;;0.98;;
17173;SDS011;8702;48.130;-1.696;2022-07-10T13:49:27;1.52;;;1.00;;
17173;SDS011;8702;48.130;-1.696;2022-07-10T13:51:55;1.90;;;1.10;;
17173;SDS011;8702;48.130;-1.696;2022-07-10T13:54:22;1.77;;;0.90;;
17173;SDS011;8702;48.130;-1.696;2022-07-10T13:56:50;1.10;;;1.00;;
17173;SDS011;8702;48.130;-1.696;2022-07-10T13:59:17;1.17;;;1.00;;
17173;SDS011;8702;48.130;-1.696;2022-07-10T14:01:45;1.27;;;1.00;;
17173;SDS011;8702;48.130;-1.696;2022-07-10T14:04:12;1.08;;;0.93;;
17173;SDS011;8702;48.130;-1.696;2022-07-10T14:06:39;2.25;;;1.08;;
17173;SDS011;8702;48.130;-1.696;2022-07-10T14:09:07;1.33;;;1.00;;
17173;SDS011;8702;48.130;-1.696;2022-07-10T14:11:34;0.85;;;0.85;;
17173;SDS011;8702;48.130;-1.696;2022-07-10T14:14:03;1.38;;;1.00;;
17173;SDS011;8702;48.130;-1.696;2022-07-10T14:16:30;0.98;;;0.90;;
17173;SDS011;8702;48.130;-1.696;2022-07-10T14:18:58;0.85;;;0.73;;
17173;SDS011;8702;48.130;-1.696;2022-07-10T14:21:25;1.17;;;0.90;;
17173;SDS011;8702;48.130;-1.696;2022-07-10T14:23:52;1.10;;;1.00;;
17173;SDS011;8702;48.130;-1.696;2022-07-10T14:26:21;1.90;;;1.30;;
17173;SDS011;8702;48.130;-1.696;2022-07-10T14:28:48;2.65;;;1.10;;
17173;SDS011;8702;48.130;-1.696;2022-07-10T14:31:16;1.73;;;1.13;;
17173;SDS011;8702;48.130;-1.696;2022-07-10T14:33:44;1.10;;;1.00;;
17173;SDS011;8702;48.130;-1.696;2022-07-10T14:36:12;1.17;;;0.93;;
17173;SDS011;8702;48.130;-1.696;2022-07-10T14:38:39;2.35;;;1.20;;
17173;SDS011;8702;48.130;-1.696;2022-07-10T14:41:06;1.77;;;1.15;;
17173;SDS011;8702;48.130;-1.696;2022-07-10T14:43:33;1.17;;;1.08;;
17173;SDS011;8702;48.130;-1.696;2022-07-10T14:46:01;1.52;;;1.30;;
17173;SDS011;8702;48.130;-1.696;2022-07-10T14:48:30;1.67;;;1.13;;
17173;SDS011;8702;48.130;-1.696;2022-07-10T14:50:58;1.27;;;1.17;;
17173;SDS011;8702;48.130;-1.696;2022-07-10T14:53:26;2.78;;;1.08;;
17173;SDS011;8702;48.130;-1.696;2022-07-10T14:55:54;3.45;;;1.30;;
17173;SDS011;8702;48.130;-1.696;2022-07-10T14:58:21;1.65;;;1.20;;
17173;SDS011;8702;48.130;-1.696;2022-07-10T15:00:48;3.33;;;1.25;;
17173;SDS011;8702;48.130;-1.696;2022-07-10T15:03:15;2.00;;;1.40;;
17173;SDS011;8702;48.130;-1.696;2022-07-10T15:05:42;1.80;;;1.30;;
17173;SDS011;8702;48.130;-1.696;2022-07-10T15:08:09;3.22;;;1.20;;